createdAt,value
2018-12-15T00:00:01.900Z,100940.46
2018-12-15T00:00:39.131Z,100942.08
2018-12-15T00:01:15.908Z,100939.92
2018-12-15T00:01:53.610Z,100942.61
2018-12-15T00:02:30.499Z,100942.08
2018-12-15T00:03:07.486Z,100939.66
2018-12-15T00:03:44.291Z,100940.20
2018-12-15T00:04:22.077Z,100938.86
2018-12-15T00:04:58.926Z,100942.35
2018-12-15T00:05:35.858Z,100937.52
2018-12-15T00:06:12.689Z,100940.47
2018-12-15T00:06:49.525Z,100936.98
2018-12-15T00:07:26.604Z,100941.28
2018-12-15T00:08:03.478Z,100941.84
2018-12-15T00:08:40.328Z,100936.73
2018-12-15T00:09:17.717Z,100945.61
2018-12-15T00:09:54.629Z,100943.19
2018-12-15T00:10:31.453Z,100945.61
2018-12-15T00:11:08.425Z,100942.66
2018-12-15T00:11:45.293Z,100942.38
2018-12-15T00:12:22.176Z,100938.62
2018-12-15T00:12:58.983Z,100941.03
2018-12-15T00:13:35.880Z,100934.05
2018-12-15T00:14:13.860Z,100938.88
2018-12-15T00:14:50.877Z,100943.45
2018-12-15T00:15:27.716Z,100944.02
2018-12-15T00:16:04.561Z,100938.91
2018-12-15T00:16:41.457Z,100941.09
2018-12-15T00:17:18.404Z,100942.70
2018-12-15T00:17:55.222Z,100944.85
2018-12-15T00:18:31.995Z,100942.43
2018-12-15T00:19:08.899Z,100945.92
2018-12-15T00:19:45.735Z,100943.23
2018-12-15T00:20:22.643Z,100942.96
2018-12-15T00:20:59.532Z,100940.27
2018-12-15T00:21:36.477Z,100939.99
2018-12-15T00:22:13.321Z,100939.48
2018-12-15T00:22:50.069Z,100940.28
2018-12-15T00:23:26.973Z,100936.24
2018-12-15T00:24:03.760Z,100941.35
2018-12-15T00:24:40.770Z,100941.61
2018-12-15T00:25:17.765Z,100942.95
2018-12-15T00:25:54.705Z,100947.25
2018-12-15T00:26:31.531Z,100946.44
2018-12-15T00:27:08.275Z,100943.75
2018-12-15T00:27:45.112Z,100949.42
2018-12-15T00:28:21.865Z,100947.80
2018-12-15T00:28:58.720Z,100948.87
2018-12-15T00:29:35.667Z,100951.02
2018-12-15T00:30:12.584Z,100953.16
2018-12-15T00:30:49.429Z,100945.62
2018-12-15T00:31:26.275Z,100945.07
2018-12-15T00:32:03.017Z,100949.37
2018-12-15T00:32:39.866Z,100947.75
2018-12-15T00:33:16.770Z,100938.33
2018-12-15T00:33:53.915Z,100943.70
2018-12-15T00:34:30.721Z,100943.48
2018-12-15T00:35:07.819Z,100945.36
2018-12-15T00:35:44.686Z,100940.51
2018-12-15T00:36:21.686Z,100939.43
2018-12-15T00:36:58.699Z,100937.55
2018-12-15T00:37:35.506Z,100942.65
2018-12-15T00:38:12.344Z,100940.75
2018-12-15T00:38:49.119Z,100947.20
2018-12-15T00:39:25.940Z,100944.50
2018-12-15T00:40:02.860Z,100946.12
2018-12-15T00:40:39.723Z,100946.38
2018-12-15T00:41:16.548Z,100948.28
2018-12-15T00:41:53.429Z,100944.75
2018-12-15T00:42:36.713Z,100946.89
2018-12-15T00:43:13.626Z,100942.56
2018-12-15T00:43:50.499Z,100946.05
2018-12-15T00:44:27.285Z,100949.54
2018-12-15T00:45:04.187Z,100946.29
2018-12-15T00:45:40.992Z,100944.68
2018-12-15T00:46:17.997Z,100954.91
2018-12-15T00:46:54.903Z,100948.16
2018-12-15T00:47:31.861Z,100952.44
2018-12-15T00:48:08.744Z,100943.00
2018-12-15T00:48:45.587Z,100944.63
2018-12-15T00:49:22.407Z,100948.38
2018-12-15T00:49:59.132Z,100947.84
2018-12-15T00:50:35.994Z,100947.30
2018-12-15T00:51:12.962Z,100950.55
2018-12-15T00:51:49.761Z,100950.02
2018-12-15T00:52:26.656Z,100955.13
2018-12-15T00:53:03.407Z,100952.15
2018-12-15T00:53:40.345Z,100956.72
2018-12-15T00:54:17.185Z,100957.50
2018-12-15T00:54:54.031Z,100952.64
2018-12-15T00:55:30.866Z,100956.39
2018-12-15T00:56:07.809Z,100958.52
2018-12-15T00:56:44.712Z,100955.27
2018-12-15T00:57:21.641Z,100959.33
2018-12-15T00:57:58.559Z,100962.78
2018-12-15T00:58:35.501Z,100965.47
2018-12-15T00:59:12.393Z,100962.75
2018-12-15T00:59:49.177Z,100965.97
2018-12-15T01:00:26.248Z,100971.89
2018-12-15T01:01:03.137Z,100964.58
2018-12-15T01:01:39.994Z,100964.56
2018-12-15T01:02:16.872Z,100966.18
2018-12-15T01:02:53.755Z,100965.62
2018-12-15T01:03:30.593Z,100962.36
2018-12-15T01:04:07.352Z,100963.17
2018-12-15T01:04:44.320Z,100970.98
2018-12-15T01:05:21.249Z,100963.42
2018-12-15T01:05:58.119Z,100970.66
2018-12-15T01:06:34.948Z,100972.02
2018-12-15T01:07:11.937Z,100977.39
2018-12-15T01:07:48.874Z,100972.77
2018-12-15T01:08:25.670Z,100972.47
2018-12-15T01:09:02.514Z,100971.38
2018-12-15T01:09:39.348Z,100971.64
2018-12-15T01:10:16.256Z,100969.72
2018-12-15T01:10:53.225Z,100974.83
2018-12-15T01:11:30.041Z,100969.15
2018-12-15T01:12:06.865Z,100972.34
2018-12-15T01:12:43.650Z,100972.09
2018-12-15T01:13:20.642Z,100969.91
2018-12-15T01:13:57.429Z,100969.91
2018-12-15T01:14:34.264Z,100968.82
2018-12-15T01:15:11.095Z,100961.30
2018-12-15T01:15:47.993Z,100966.38
2018-12-15T01:16:25.676Z,100972.30
2018-12-15T01:17:02.498Z,100967.73
2018-12-15T01:17:39.353Z,100972.27
2018-12-15T01:18:16.800Z,100970.38
2018-12-15T01:18:53.553Z,100971.70
2018-12-15T01:19:30.438Z,100969.23
2018-12-15T01:20:07.561Z,100970.04
2018-12-15T01:20:44.272Z,100968.38
2018-12-15T01:21:21.146Z,100962.17
2018-12-15T01:21:58.084Z,100960.54
2018-12-15T01:22:34.945Z,100965.11
2018-12-15T01:23:11.827Z,100958.33
2018-12-15T01:23:48.662Z,100962.06
2018-12-15T01:24:25.575Z,100964.45
2018-12-15T01:25:02.389Z,100969.53
2018-12-15T01:25:39.296Z,100973.04
2018-12-15T01:26:16.289Z,100966.80
2018-12-15T01:26:53.171Z,100969.44
2018-12-15T01:27:29.931Z,100972.11
2018-12-15T01:28:06.878Z,100972.34
2018-12-15T01:28:44.339Z,100977.97
2018-12-15T01:29:21.180Z,100976.07
2018-12-15T01:29:57.989Z,100980.89
2018-12-15T01:30:34.894Z,100978.16
2018-12-15T01:31:11.769Z,100976.48
2018-12-15T01:31:48.637Z,100980.48
2018-12-15T01:32:25.556Z,100976.13
2018-12-15T01:33:02.425Z,100974.45
2018-12-15T01:33:39.411Z,100976.06
2018-12-15T01:34:16.268Z,100971.71
2018-12-15T01:34:53.273Z,100966.30
2018-12-15T01:35:30.072Z,100977.56
2018-12-15T01:36:06.883Z,100974.27
2018-12-15T01:36:43.897Z,100969.09
2018-12-15T01:37:20.755Z,100979.57
2018-12-15T01:37:57.599Z,100978.50
2018-12-15T01:38:34.524Z,100968.25
2018-12-15T01:39:12.080Z,100973.91
2018-12-15T01:39:48.954Z,100972.47
2018-12-15T01:40:26.699Z,100979.20
2018-12-15T01:41:03.532Z,100975.95
2018-12-15T01:41:40.305Z,100976.45
2018-12-15T01:42:17.271Z,100976.93
2018-12-15T01:42:54.027Z,100965.05
2018-12-15T01:43:31.908Z,100972.25
2018-12-15T01:44:08.927Z,100977.35
2018-12-15T01:44:45.757Z,100966.84
2018-12-15T01:45:22.785Z,100976.80
2018-12-15T01:45:59.476Z,100978.70
2018-12-15T01:46:36.436Z,100975.15
2018-12-15T01:47:13.450Z,100982.42
2018-12-15T01:47:50.314Z,100980.22
2018-12-15T01:48:27.166Z,100984.75
2018-12-15T01:49:03.972Z,100982.30
2018-12-15T01:49:40.884Z,100986.27
2018-12-15T01:50:17.873Z,100991.42
2018-12-15T01:50:54.993Z,100990.28
2018-12-15T01:51:31.720Z,100991.89
2018-12-15T01:52:08.583Z,100987.49
2018-12-15T01:52:45.341Z,100993.92
2018-12-15T01:53:22.104Z,100995.48
2018-12-15T01:53:58.979Z,100998.14
2018-12-15T01:54:37.008Z,100997.05
2018-12-15T01:55:13.942Z,100995.12
2018-12-15T01:55:50.903Z,100997.28
2018-12-15T01:56:28.514Z,100998.89
2018-12-15T01:57:05.320Z,100994.88
2018-12-15T01:57:42.186Z,100996.48
2018-12-15T01:58:18.991Z,100999.19
2018-12-15T01:58:55.882Z,100998.59
2018-12-15T01:59:33.604Z,101002.11
2018-12-15T02:00:11.439Z,100998.84
2018-12-15T02:00:49.328Z,100997.75
2018-12-15T02:01:26.206Z,100996.60
2018-12-15T02:02:03.107Z,101003.42
2018-12-15T02:02:39.906Z,101003.67
2018-12-15T02:03:17.248Z,101007.64
2018-12-15T02:03:54.329Z,101013.05
2018-12-15T02:04:31.308Z,101011.24
2018-12-15T02:05:08.244Z,101009.59
2018-12-15T02:05:45.434Z,101010.94
2018-12-15T02:06:22.625Z,101014.66
2018-12-15T02:06:59.697Z,101009.80
2018-12-15T02:07:36.600Z,101015.70
2018-12-15T02:08:13.462Z,101015.11
2018-12-15T02:08:50.601Z,101016.16
2018-12-15T02:09:30.487Z,101019.62
2018-12-15T02:10:08.243Z,101019.32
2018-12-15T02:10:44.989Z,101016.56
2018-12-15T02:11:22.152Z,101021.57
2018-12-15T02:11:58.898Z,101023.52
2018-12-15T02:12:36.007Z,101020.81
2018-12-15T02:13:12.934Z,101016.95
2018-12-15T02:13:49.970Z,101019.06
2018-12-15T02:14:26.777Z,101022.58
2018-12-15T02:15:03.769Z,101021.73
2018-12-15T02:15:40.584Z,101024.14
2018-12-15T02:16:17.324Z,101021.89
2018-12-15T02:16:54.409Z,101013.27
2018-12-15T02:17:33.765Z,101015.92
2018-12-15T02:18:10.271Z,101012.71
2018-12-15T02:18:47.197Z,101010.80
2018-12-15T02:19:24.157Z,101008.70
2018-12-15T02:20:01.756Z,101004.42
2018-12-15T02:20:38.793Z,101006.93
2018-12-15T02:21:15.849Z,101008.28
2018-12-15T02:21:53.265Z,101005.33
2018-12-15T02:22:30.412Z,101005.33
2018-12-15T02:23:07.439Z,100999.06
2018-12-15T02:23:44.562Z,101000.16
2018-12-15T02:24:21.901Z,100998.42
2018-12-15T02:24:59.461Z,100997.06
2018-12-15T02:25:36.543Z,101001.62
2018-12-15T02:26:13.485Z,101000.22
2018-12-15T02:26:50.549Z,100999.15
2018-12-15T02:27:27.429Z,101003.72
2018-12-15T02:28:04.424Z,101001.52
2018-12-15T02:28:41.401Z,100998.45
2018-12-15T02:29:18.388Z,100999.81
2018-12-15T02:29:55.185Z,101001.17
2018-12-15T02:30:31.920Z,100997.02
2018-12-15T02:31:08.712Z,101001.58
2018-12-15T02:31:45.525Z,101000.52
2018-12-15T02:32:22.322Z,101006.39
2018-12-15T02:32:59.159Z,100996.92
2018-12-15T02:33:35.946Z,101000.06
2018-12-15T02:34:12.829Z,101007.09
2018-12-15T02:34:49.575Z,100997.26
2018-12-15T02:35:26.492Z,101004.78
2018-12-15T02:36:03.977Z,101001.52
2018-12-15T02:36:40.789Z,100999.02
2018-12-15T02:37:17.679Z,101002.48
2018-12-15T02:37:54.799Z,101000.37
2018-12-15T02:38:31.678Z,101009.60
2018-12-15T02:39:10.866Z,101005.53
2018-12-15T02:39:48.043Z,101013.66
2018-12-15T02:40:24.934Z,101005.23
2018-12-15T02:41:01.880Z,101006.80
2018-12-15T02:41:38.804Z,101014.42
2018-12-15T02:42:16.516Z,101011.96
2018-12-15T02:42:53.269Z,101014.42
2018-12-15T02:43:30.161Z,101013.06
2018-12-15T02:44:07.181Z,101015.52
2018-12-15T02:44:44.256Z,101014.42
2018-12-15T02:45:21.380Z,101016.53
2018-12-15T02:45:58.242Z,101014.86
2018-12-15T02:46:35.097Z,101010.22
2018-12-15T02:47:12.093Z,101008.06
2018-12-15T02:47:48.973Z,101017.69
2018-12-15T02:48:25.937Z,101012.47
2018-12-15T02:49:02.875Z,101009.52
2018-12-15T02:49:39.727Z,101013.83
2018-12-15T02:50:16.676Z,101013.27
2018-12-15T02:50:53.523Z,101017.79
2018-12-15T02:51:30.288Z,101011.21
2018-12-15T02:52:07.042Z,101017.11
2018-12-15T02:52:43.944Z,101011.08
2018-12-15T02:53:20.812Z,101013.19
2018-12-15T02:53:57.705Z,101009.31
2018-12-15T02:54:34.458Z,101014.69
2018-12-15T02:55:11.272Z,101019.50
2018-12-15T02:55:48.111Z,101024.31
2018-12-15T02:56:24.915Z,101023.48
2018-12-15T02:57:01.610Z,101023.98
2018-12-15T02:57:38.455Z,101022.83
2018-12-15T02:58:15.360Z,101023.58
2018-12-15T02:58:52.412Z,101017.02
2018-12-15T02:59:29.350Z,101019.73
2018-12-15T03:00:06.314Z,101016.16
2018-12-15T03:00:43.207Z,101014.19
2018-12-15T03:01:20.143Z,101009.79
2018-12-15T03:01:57.010Z,101011.09
2018-12-15T03:02:33.952Z,101009.92
2018-12-15T03:03:10.865Z,101012.52
2018-12-15T03:03:48.302Z,101007.03
2018-12-15T03:04:25.286Z,101002.41
2018-12-15T03:05:01.998Z,101008.88
2018-12-15T03:05:38.910Z,101007.47
2018-12-15T03:06:15.806Z,101010.18
2018-12-15T03:06:52.694Z,101005.50
2018-12-15T03:07:29.628Z,101009.57
2018-12-15T03:08:06.661Z,101005.50
2018-12-15T03:08:43.485Z,100999.80
2018-12-15T03:09:20.432Z,101003.80
2018-12-15T03:09:57.390Z,101000.78
2018-12-15T03:10:34.218Z,101007.88
2018-12-15T03:11:11.132Z,101005.66
2018-12-15T03:11:47.997Z,101006.70
2018-12-15T03:12:24.904Z,101009.11
2018-12-15T03:13:01.679Z,101010.96
2018-12-15T03:13:38.499Z,101009.55
2018-12-15T03:14:15.237Z,101007.33
2018-12-15T03:14:52.121Z,101012.38
2018-12-15T03:15:28.979Z,101015.06
2018-12-15T03:16:05.894Z,101016.95
2018-12-15T03:16:51.212Z,101017.19
2018-12-15T03:17:28.011Z,101014.11
2018-12-15T03:18:04.870Z,101018.98
2018-12-15T03:18:42.676Z,101016.82
2018-12-15T03:19:19.654Z,101018.36
2018-12-15T03:19:58.321Z,101014.44
2018-12-15T03:20:35.062Z,101021.90
2018-12-15T03:21:11.950Z,101015.42
2018-12-15T03:21:48.901Z,101018.31
2018-12-15T03:22:25.817Z,101018.19
2018-12-15T03:23:02.736Z,101014.13
2018-12-15T03:23:39.676Z,101016.22
2018-12-15T03:24:16.767Z,101015.11
2018-12-15T03:24:53.486Z,101016.09
2018-12-15T03:25:30.339Z,101012.69
2018-12-15T03:26:07.279Z,101011.64
2018-12-15T03:26:44.044Z,101015.22
2018-12-15T03:27:20.980Z,101015.95
2018-12-15T03:27:57.939Z,101011.53
2018-12-15T03:28:34.786Z,101007.95
2018-12-15T03:29:11.524Z,101010.91
2018-12-15T03:29:48.312Z,101012.27
2018-12-15T03:30:25.197Z,101008.14
2018-12-15T03:31:02.323Z,101018.38
2018-12-15T03:31:39.152Z,101009.62
2018-12-15T03:32:16.034Z,101008.95
2018-12-15T03:32:52.959Z,101006.48
2018-12-15T03:33:29.921Z,101009.06
2018-12-15T03:34:06.923Z,101007.45
2018-12-15T03:34:43.736Z,101010.66
2018-12-15T03:35:20.571Z,101006.84
2018-12-15T03:35:57.428Z,101006.48
2018-12-15T03:36:34.424Z,101007.22
2018-12-15T03:37:11.259Z,100998.22
2018-12-15T03:37:48.142Z,101003.89
2018-12-15T03:38:25.014Z,100999.73
2018-12-15T03:39:01.888Z,100997.52
2018-12-15T03:39:38.736Z,100998.25
2018-12-15T03:40:15.746Z,100997.14
2018-12-15T03:40:52.821Z,100995.72
2018-12-15T03:41:30.282Z,100992.70
2018-12-15T03:42:07.708Z,100996.89
2018-12-15T03:42:45.010Z,100990.08
2018-12-15T03:43:22.015Z,100992.77
2018-12-15T03:43:58.810Z,100995.23
2018-12-15T03:44:35.753Z,100997.08
2018-12-15T03:45:12.707Z,100996.45
2018-12-15T03:45:49.656Z,100995.91
2018-12-15T03:46:26.682Z,100996.58
2018-12-15T03:47:03.609Z,100991.64
2018-12-15T03:47:40.431Z,100987.68
2018-12-15T03:48:17.368Z,100995.73
2018-12-15T03:48:54.372Z,100989.12
2018-12-15T03:49:31.217Z,100988.73
2018-12-15T03:50:09.721Z,100989.16
2018-12-15T03:50:46.614Z,100988.16
2018-12-15T03:51:23.422Z,100986.20
2018-12-15T03:52:00.217Z,100988.08
2018-12-15T03:52:37.096Z,100988.33
2018-12-15T03:53:13.988Z,100989.79
2018-12-15T03:53:51.004Z,100986.20
2018-12-15T03:54:27.849Z,100988.05
2018-12-15T03:55:04.762Z,100990.66
2018-12-15T03:55:41.571Z,100985.36
2018-12-15T03:56:18.467Z,100993.59
2018-12-15T03:56:55.261Z,100987.48
2018-12-15T03:57:32.119Z,100990.30
2018-12-15T03:58:08.968Z,100997.15
2018-12-15T03:58:45.898Z,100989.79
2018-12-15T03:59:23.538Z,100995.72
2018-12-15T04:00:00.533Z,100998.01
2018-12-15T04:00:37.663Z,100998.53
2018-12-15T04:01:14.636Z,100994.18
2018-12-15T04:01:51.457Z,100987.15
2018-12-15T04:02:28.391Z,100992.58
2018-12-15T04:03:05.425Z,100991.75
2018-12-15T04:03:42.147Z,100988.75
2018-12-15T04:04:20.089Z,100982.83
2018-12-15T04:04:57.029Z,100983.08
2018-12-15T04:05:33.968Z,100979.13
2018-12-15T04:06:10.896Z,100982.34
2018-12-15T04:06:47.644Z,100982.14
2018-12-15T04:07:24.495Z,100983.06
2018-12-15T04:08:01.342Z,100978.93
2018-12-15T04:08:39.279Z,100988.05
2018-12-15T04:09:17.090Z,100989.17
2018-12-15T04:09:53.932Z,100987.81
2018-12-15T04:10:30.745Z,100979.42
2018-12-15T04:11:07.621Z,100986.27
2018-12-15T04:11:44.621Z,100982.51
2018-12-15T04:12:21.486Z,100985.23
2018-12-15T04:12:58.640Z,100985.23
2018-12-15T04:13:35.353Z,100985.23
2018-12-15T04:17:28.923Z,100968.06
2018-12-15T04:18:05.717Z,100966.09
2018-12-15T04:18:42.541Z,100963.73
2018-12-15T04:19:19.328Z,100961.89
2018-12-15T04:19:56.135Z,100959.52
2018-12-15T04:20:33.140Z,100958.55
2018-12-15T04:21:10.016Z,100965.97
2018-12-15T04:21:47.022Z,100957.53
2018-12-15T04:22:27.124Z,100964.45
2018-12-15T04:23:04.047Z,100965.18
2018-12-15T04:23:41.194Z,100968.53
2018-12-15T04:24:18.294Z,100965.33
2018-12-15T04:24:55.364Z,100955.91
2018-12-15T04:25:32.420Z,100962.34
2018-12-15T04:26:09.615Z,100958.58
2018-12-15T04:26:46.833Z,100955.92
2018-12-15T04:27:23.941Z,100953.52
2018-12-15T04:28:00.865Z,100954.56
2018-12-15T04:28:37.896Z,100952.83
2018-12-15T04:29:14.980Z,100940.72
2018-12-15T04:29:52.043Z,100940.58
2018-12-15T04:30:28.874Z,100944.27
2018-12-15T04:31:06.799Z,100944.50
2018-12-15T04:31:43.861Z,100941.23
2018-12-15T04:32:20.900Z,100938.44
2018-12-15T04:32:57.866Z,100937.56
2018-12-15T04:33:34.696Z,100937.69
2018-12-15T04:34:11.505Z,100937.92
2018-12-15T04:34:48.537Z,100935.61
2018-12-15T04:35:25.479Z,100937.48
2018-12-15T04:36:03.029Z,100941.00
2018-12-15T04:36:39.951Z,100942.61
2018-12-15T04:37:16.911Z,100939.81
2018-12-15T04:37:54.044Z,100937.41
2018-12-15T04:38:30.940Z,100935.17
2018-12-15T04:39:08.964Z,100937.02
2018-12-15T04:39:45.797Z,100939.73
2018-12-15T04:40:22.790Z,100937.81
2018-12-15T04:40:59.706Z,100936.29
2018-12-15T04:41:37.753Z,100943.81
2018-12-15T04:42:14.820Z,100946.77
2018-12-15T04:42:51.699Z,100943.41
2018-12-15T04:43:28.593Z,100940.81
2018-12-15T04:44:05.405Z,100938.31
2018-12-15T04:44:42.184Z,100941.28
2018-12-15T04:45:19.099Z,100945.91
2018-12-15T04:45:56.128Z,100946.39
2018-12-15T04:46:33.045Z,100946.80
2018-12-15T04:47:10.225Z,100943.84
2018-12-15T04:47:47.338Z,100939.77
2018-12-15T04:48:24.344Z,100937.48
2018-12-15T04:49:01.255Z,100942.84
2018-12-15T04:49:38.190Z,100937.41
2018-12-15T04:50:15.161Z,100938.86
2018-12-15T04:50:52.077Z,100940.45
2018-12-15T04:51:29.003Z,100941.25
2018-12-15T04:52:05.969Z,100939.53
2018-12-15T04:52:42.892Z,100938.89
2018-12-15T04:53:19.960Z,100936.73
2018-12-15T04:53:57.014Z,100943.53
2018-12-15T04:54:33.955Z,100945.37
2018-12-15T04:55:10.806Z,100945.61
2018-12-15T04:55:47.739Z,100939.70
2018-12-15T04:56:24.655Z,100943.29
2018-12-15T04:57:01.611Z,100944.53
2018-12-15T04:57:38.500Z,100938.05
2018-12-15T04:58:16.235Z,100945.13
2018-12-15T04:58:53.118Z,100940.45
2018-12-15T04:59:30.054Z,100935.81
2018-12-15T05:00:07.084Z,100944.09
2018-12-15T05:00:43.920Z,100940.56
2018-12-15T05:01:20.751Z,100938.23
2018-12-15T05:01:57.612Z,100936.28
2018-12-15T05:02:34.472Z,100940.58
2018-12-15T05:03:11.431Z,100937.12
2018-12-15T05:03:48.337Z,100928.08
2018-12-15T05:04:25.408Z,100927.77
2018-12-15T05:05:02.699Z,100925.61
2018-12-15T05:05:39.736Z,100926.16
2018-12-15T05:06:16.694Z,100925.53
2018-12-15T05:06:54.016Z,100922.33
2018-12-15T05:07:31.166Z,100919.97
2018-12-15T05:08:08.456Z,100923.56
2018-12-15T05:08:45.745Z,100920.60
2018-12-15T05:09:22.673Z,100910.44
2018-12-15T05:09:59.532Z,100911.80
2018-12-15T05:10:36.841Z,100914.03
2018-12-15T05:11:13.764Z,100914.97
2018-12-15T05:11:50.642Z,100917.53
2018-12-15T05:12:27.550Z,100914.01
2018-12-15T05:13:04.411Z,100919.52
2018-12-15T05:13:41.609Z,100913.11
2018-12-15T05:14:18.523Z,100914.61
2018-12-15T05:14:55.425Z,100912.66
2018-12-15T05:15:32.618Z,100916.21
2018-12-15T05:16:09.734Z,100915.13
2018-12-15T05:16:46.567Z,100912.77
2018-12-15T05:17:23.779Z,100910.43
2018-12-15T05:18:01.176Z,100904.38
2018-12-15T05:18:38.136Z,100904.86
2018-12-15T05:19:15.186Z,100901.48
2018-12-15T05:19:51.972Z,100900.19
2018-12-15T05:20:29.020Z,100899.98
2018-12-15T05:21:06.452Z,100893.12
2018-12-15T05:21:43.454Z,100898.08
2018-12-15T05:22:20.483Z,100899.08
2018-12-15T05:22:57.341Z,100899.56
2018-12-15T05:23:34.135Z,100897.97
2018-12-15T05:24:11.141Z,100892.16
2018-12-15T05:24:48.212Z,100892.30
2018-12-15T05:25:24.988Z,100887.11
2018-12-15T05:26:01.957Z,100888.59
2018-12-15T05:26:38.839Z,100886.12
2018-12-15T05:27:15.850Z,100883.91
2018-12-15T05:27:52.798Z,100883.28
2018-12-15T05:28:29.636Z,100884.87
2018-12-15T05:29:07.570Z,100883.83
2018-12-15T05:29:44.472Z,100879.90
2018-12-15T05:30:21.724Z,100880.03
2018-12-15T05:30:58.704Z,100880.70
2018-12-15T05:31:35.521Z,100877.14
2018-12-15T05:32:12.380Z,100878.58
2018-12-15T05:32:49.222Z,100880.80
2018-12-15T05:33:26.127Z,100867.72
2018-12-15T05:34:03.079Z,100873.11
2018-12-15T05:34:39.978Z,100871.47
2018-12-15T05:35:17.154Z,100868.48
2018-12-15T05:35:53.976Z,100865.21
2018-12-15T05:36:30.957Z,100869.11
2018-12-15T05:37:07.982Z,100865.10
2018-12-15T05:37:45.100Z,100860.96
2018-12-15T05:38:21.904Z,100867.44
2018-12-15T05:38:58.779Z,100863.99
2018-12-15T05:39:36.119Z,100865.03
2018-12-15T05:40:13.121Z,100860.55
2018-12-15T05:40:50.022Z,100863.19
2018-12-15T05:41:26.957Z,100865.59
2018-12-15T05:42:04.806Z,100857.27
2018-12-15T05:42:41.692Z,100858.22
2018-12-15T05:43:18.577Z,100858.47
2018-12-15T05:43:55.486Z,100860.93
2018-12-15T05:44:32.322Z,100862.67
2018-12-15T05:45:09.824Z,100859.71
2018-12-15T05:45:46.621Z,100855.64
2018-12-15T05:46:23.638Z,100853.23
2018-12-15T05:47:00.333Z,100852.19
2018-12-15T05:47:37.229Z,100849.55
2018-12-15T05:48:14.275Z,100851.70
2018-12-15T05:48:51.095Z,100850.34
2018-12-15T05:49:28.048Z,100849.80
2018-12-15T05:50:05.040Z,100843.01
2018-12-15T05:50:42.214Z,100849.23
2018-12-15T05:51:19.522Z,100846.28
2018-12-15T05:51:56.520Z,100850.10
2018-12-15T05:52:33.487Z,100840.12
2018-12-15T05:53:10.348Z,100839.88
2018-12-15T05:53:47.530Z,100843.70
2018-12-15T05:54:24.569Z,100839.38
2018-12-15T05:55:01.471Z,100838.89
2018-12-15T05:55:38.360Z,100830.75
2018-12-15T05:56:15.255Z,100834.27
2018-12-15T05:56:52.749Z,100831.84
2018-12-15T05:57:29.616Z,100831.00
2018-12-15T05:58:06.431Z,100825.81
2018-12-15T05:58:43.286Z,100826.41
2018-12-15T05:59:20.235Z,100825.92
2018-12-15T05:59:57.269Z,100826.23
2018-12-15T06:00:34.480Z,100821.30
2018-12-15T06:01:11.831Z,100816.36
2018-12-15T06:01:48.788Z,100824.49
2018-12-15T06:02:26.551Z,100813.47
2018-12-15T06:03:03.889Z,100813.53
2018-12-15T06:03:42.672Z,100812.00
2018-12-15T06:04:19.701Z,100810.09
2018-12-15T06:04:57.149Z,100810.09
2018-12-15T06:05:34.084Z,100806.33
2018-12-15T06:06:11.209Z,100804.48
2018-12-15T06:06:48.115Z,100804.10
2018-12-15T06:07:24.936Z,100801.01
2018-12-15T06:08:01.768Z,100797.91
2018-12-15T06:08:38.532Z,100798.68
2018-12-15T06:09:15.279Z,100797.19
2018-12-15T06:09:52.149Z,100796.31
2018-12-15T06:10:29.012Z,100799.20
2018-12-15T06:11:05.860Z,100792.52
2018-12-15T06:12:07.226Z,100792.44
2018-12-15T06:12:46.765Z,100786.86
2018-12-15T06:13:24.595Z,100789.75
2018-12-15T06:14:01.468Z,100783.28
2018-12-15T06:14:38.602Z,100781.84
2018-12-15T06:15:15.765Z,100779.62
2018-12-15T06:15:52.596Z,100777.07
2018-12-15T06:16:29.628Z,100773.17
2018-12-15T06:17:19.263Z,100767.13
2018-12-15T06:18:06.038Z,100771.69
2018-12-15T06:18:45.070Z,100757.48
2018-12-15T06:19:26.154Z,100765.63
2018-12-15T06:20:11.463Z,100758.36
2018-12-15T06:21:00.727Z,100756.36
2018-12-15T06:21:42.765Z,100752.84
2018-12-15T06:22:26.698Z,100746.69
2018-12-15T06:23:07.723Z,100746.16
2018-12-15T06:23:50.269Z,100745.05
2018-12-15T06:24:34.122Z,100734.67
2018-12-15T06:25:17.043Z,100738.09
2018-12-15T06:26:12.267Z,100735.45
2018-12-15T06:26:59.373Z,100732.98
2018-12-15T06:27:44.760Z,100732.02
2018-12-15T06:28:21.919Z,100737.61
2018-12-15T06:29:08.549Z,100726.19
2018-12-15T06:29:47.191Z,100735.70
2018-12-15T06:30:34.532Z,100738.65
2018-12-15T06:31:21.796Z,100729.47
2018-12-15T06:32:00.784Z,100734.90
2018-12-15T06:32:38.387Z,100735.45
2018-12-15T06:33:18.328Z,100730.66
2018-12-15T06:33:55.543Z,100738.08
2018-12-15T06:34:44.343Z,100730.80
2018-12-15T06:35:30.179Z,100734.92
2018-12-15T06:36:08.439Z,100736.95
2018-12-15T06:36:52.995Z,100731.67
2018-12-15T06:37:37.653Z,100733.66
2018-12-15T06:38:15.339Z,100734.67
2018-12-15T06:38:58.205Z,100726.88
2018-12-15T06:39:36.971Z,100728.37
2018-12-15T06:40:14.311Z,100736.59
2018-12-15T06:40:51.517Z,100734.57
2018-12-15T06:41:40.291Z,100728.41
2018-12-15T06:42:18.579Z,100727.41
2018-12-15T06:42:59.513Z,100728.03
2018-12-15T06:43:38.353Z,100724.11
2018-12-15T06:44:16.449Z,100720.91
2018-12-15T06:44:56.581Z,100719.89
2018-12-15T06:45:36.483Z,100723.30
2018-12-15T06:46:25.858Z,100718.91
2018-12-15T06:47:10.021Z,100727.42
2018-12-15T06:48:00.701Z,100727.80
2018-12-15T06:49:49.541Z,100724.17
2018-12-15T06:50:27.936Z,100719.58
2018-12-15T06:51:05.005Z,100721.25
2018-12-15T06:51:42.335Z,100724.52
2018-12-15T06:52:21.262Z,100719.16
2018-12-15T06:53:05.047Z,100722.42
2018-12-15T06:53:45.024Z,100717.06
2018-12-15T06:54:22.824Z,100720.88
2018-12-15T06:55:01.426Z,100719.28
2018-12-15T06:55:41.440Z,100717.92
2018-12-15T06:56:30.423Z,100717.44
2018-12-15T06:57:08.985Z,100720.39
2018-12-15T06:57:52.478Z,100714.23
2018-12-15T06:58:30.831Z,100712.88
2018-12-15T07:03:18.087Z,100714.30
2018-12-15T07:03:59.129Z,100714.11
2018-12-15T07:04:46.288Z,100713.68
2018-12-15T07:18:44.772Z,100721.41
2018-12-15T07:19:30.033Z,100720.25
2018-12-15T14:49:24.950Z,101068.54
2018-12-15T14:50:54.617Z,101065.31
2018-12-15T14:51:33.632Z,101066.16
2018-12-15T14:52:13.098Z,101064.00
2018-12-15T14:52:50.856Z,101066.96
2018-12-15T14:53:28.626Z,101065.62
2018-12-15T14:54:05.928Z,101064.01
2018-12-15T14:54:43.713Z,101064.55
2018-12-15T14:55:21.321Z,101062.39
2018-12-15T14:55:59.001Z,101063.73
2018-12-15T14:56:36.503Z,101059.98
2018-12-15T14:57:16.419Z,101065.36
2018-12-15T14:57:53.998Z,101061.05
2018-12-15T14:58:31.997Z,101060.01
2018-12-15T14:59:09.286Z,101063.23
2018-12-15T14:59:46.302Z,101058.39
2018-12-15T15:00:23.936Z,101057.59